LTAS

Zonguldak Airport

Zonguldak, Turkey
TAF LTAS 171340Z 1715/1724 VRB02KT 9999 FEW015 SCT035 BKN180
Issued Valid From Valid To
Oct-17 @ 13:40 UTC
(7 hours ago)
Oct-17 @ 15:00 UTC
(5 hours ago)
Oct-18 @ 00:00 UTC
(in 4 hours)
Oct-17 @ 15:00 to Oct-18 @ 00:00
TAF LTAS 171340Z 1715/1724 VRB02KT 9999 FEW015 SCT035 BKN180
Wind Visibility Clouds
Variable at 2 knots 10,000+ meters
  • Few at 1,500' AGL
  • Scattered at 3,500' AGL
  • Broken at 18,000' AGL
TAF LTAS 171340Z 1715/1724 VRB02KT 9999 FEW015 SCT035 BKN180
Issued Oct-17 @ 13:40 UTC
(7 hours ago)
Valid From Oct-17 @ 15:00 UTC
(5 hours ago)
Valid To Oct-18 @ 00:00 UTC
(in 4 hours)
Oct-17 @ 15:00 - Oct-18 @ 00:00
Wind Visibility
Variable at 2 knots 10,000+ meters
Clouds
  • Few at 1,500' AGL
  • Scattered at 3,500' AGL
  • Broken at 18,000' AGL